Time;durP1;ratioP1;P1;durP2;ratioP2;P2;SDS_P1;SDS_P2;PMS_P1;PMS_P2;Temp;Humidity;BMP_temperature;BMP_pressure;BME280_temperature;BME280_humidity;BME280_pressure;Samples;Min_cycle;Max_cycle;Signal;HPM_P1;HPM_P2
2023/05/11 00:02:00;;;;;;;13.00;9.43;;;11.90;99.90;;;;;;4978698;28;20189;-81
2023/05/11 00:04:26;;;;;;;14.25;10.15;;;11.90;99.90;;;;;;4979548;28;20192;-82
2023/05/11 00:06:54;;;;;;;13.35;9.18;;;11.90;99.90;;;;;;4996349;28;20189;-80
2023/05/11 00:09:20;;;;;;;14.52;9.35;;;11.90;99.90;;;;;;4996747;28;20177;-80
2023/05/11 00:11:46;;;;;;;15.80;9.95;;;11.90;99.90;;;;;;4977779;28;20205;-81
2023/05/11 00:14:12;;;;;;;14.38;9.40;;;11.90;99.90;;;;;;4995301;28;20706;-81
2023/05/11 00:16:37;;;;;;;13.57;9.85;;;11.90;99.90;;;;;;4961830;28;20193;-79
2023/05/11 00:19:03;;;;;;;14.77;9.70;;;12.00;99.90;;;;;;4995447;28;20283;-79
2023/05/11 00:21:29;;;;;;;14.52;10.40;;;12.00;99.90;;;;;;4960278;28;20217;-81
2023/05/11 00:23:55;;;;;;;15.30;9.25;;;12.00;99.90;;;;;;4961889;28;20540;-81
2023/05/11 00:26:21;;;;;;;14.38;9.75;;;12.00;99.90;;;;;;4977763;28;20275;-81
2023/05/11 00:28:47;;;;;;;16.27;9.55;;;12.00;99.90;;;;;;4959798;28;20192;-81
2023/05/11 00:31:12;;;;;;;16.98;9.70;;;12.00;99.90;;;;;;4994259;28;20185;-79
2023/05/11 00:33:38;;;;;;;14.68;9.95;;;12.00;99.90;;;;;;4961081;28;20260;-82
2023/05/11 00:36:05;;;;;;;14.23;9.60;;;12.00;99.90;;;;;;4961013;28;20196;-81
2023/05/11 00:38:31;;;;;;;15.77;9.80;;;12.00;99.90;;;;;;4963829;28;20236;-81
2023/05/11 00:40:57;;;;;;;13.95;9.63;;;12.00;99.90;;;;;;4977588;28;20193;-81
2023/05/11 00:43:23;;;;;;;14.68;10.27;;;12.00;99.90;;;;;;4977096;28;20208;-81
2023/05/11 00:45:51;;;;;;;15.35;9.90;;;12.00;99.90;;;;;;4960917;28;20651;-81
2023/05/11 00:48:16;;;;;;;15.18;10.07;;;12.00;99.90;;;;;;4961685;28;20656;-81
2023/05/11 00:50:43;;;;;;;17.08;10.77;;;12.00;99.90;;;;;;4976735;28;20285;-81
2023/05/11 00:53:10;;;;;;;15.25;10.32;;;12.00;99.90;;;;;;4960665;28;20197;-81
2023/05/11 00:55:37;;;;;;;14.15;10.02;;;12.00;99.90;;;;;;4991796;28;20197;-81
2023/05/11 00:58:05;;;;;;;26.73;10.85;;;12.00;99.90;;;;;;4961192;28;20216;-81
2023/05/11 01:00:31;;;;;;;17.65;9.65;;;12.00;99.90;;;;;;4974976;28;20186;-81
2023/05/11 01:02:58;;;;;;;14.35;10.13;;;12.00;99.90;;;;;;4994834;28;20224;-81
2023/05/11 01:05:30;;;;;;;15.93;10.05;;;11.90;99.90;;;;;;4993060;28;20268;-81
2023/05/11 01:08:09;;;;;;;18.23;10.00;;;12.00;99.90;;;;;;4975956;28;20348;-81
2023/05/11 01:10:56;;;;;;;13.38;9.88;;;12.00;99.90;;;;;;4975722;28;20192;-81
2023/05/11 01:13:38;;;;;;;13.65;9.68;;;11.90;99.90;;;;;;4976255;28;20276;-81
2023/05/11 01:16:11;;;;;;;15.57;9.90;;;11.90;99.90;;;;;;4988072;28;20186;-82
2023/05/11 01:19:12;;;;;;;14.35;10.05;;;11.90;99.90;;;;;;4968399;28;20564;-81
2023/05/11 01:21:40;;;;;;;15.98;10.20;;;11.90;99.90;;;;;;4927235;28;20576;-83
2023/05/11 01:24:08;;;;;;;14.80;10.07;;;11.90;99.90;;;;;;4991801;28;20189;-81
2023/05/11 01:26:59;;;;;;;16.58;11.02;;;12.00;99.90;;;;;;4959168;28;20185;-81
2023/05/11 01:29:59;;;;;;;16.48;11.02;;;12.00;99.90;;;;;;4958992;28;20185;-80
2023/05/11 01:32:27;;;;;;;22.15;12.10;;;12.00;99.90;;;;;;4973546;28;20652;-81
2023/05/11 01:35:17;;;;;;;19.27;11.70;;;12.00;99.90;;;;;;4975959;28;20247;-81
2023/05/11 01:37:50;;;;;;;21.98;12.27;;;11.90;99.90;;;;;;4975699;28;20181;-81
2023/05/11 01:40:20;;;;;;;20.05;12.27;;;11.90;99.90;;;;;;4959857;28;20208;-83
2023/05/11 01:43:06;;;;;;;23.10;12.18;;;11.90;99.90;;;;;;4991182;28;20579;-81
2023/05/11 01:45:35;;;;;;;18.23;11.73;;;11.90;99.90;;;;;;4992932;28;20276;-81
2023/05/11 01:48:06;;;;;;;26.02;11.32;;;11.90;99.90;;;;;;4992898;28;20216;-81
2023/05/11 01:50:33;;;;;;;23.52;11.05;;;11.90;99.90;;;;;;4991351;28;20177;-81
2023/05/11 01:53:02;;;;;;;17.38;10.55;;;11.90;99.90;;;;;;4975683;28;20564;-81
2023/05/11 01:55:31;;;;;;;20.50;10.88;;;11.90;99.90;;;;;;4992699;28;20192;-80
2023/05/11 01:57:58;;;;;;;16.10;10.20;;;11.90;99.90;;;;;;4959518;28;20537;-81
2023/05/11 02:00:24;;;;;;;21.20;10.73;;;11.90;99.90;;;;;;4990302;28;20239;-82
2023/05/11 02:02:53;;;;;;;18.98;10.82;;;11.90;99.90;;;;;;4976111;28;20197;-81
2023/05/11 02:05:22;;;;;;;26.80;10.50;;;11.90;99.90;;;;;;4992655;28;20204;-82
2023/05/11 02:07:50;;;;;;;23.70;10.15;;;11.90;99.90;;;;;;4991171;28;20559;-81
2023/05/11 02:10:17;;;;;;;16.27;10.80;;;11.80;99.90;;;;;;4959912;28;20182;-81
2023/05/11 02:12:45;;;;;;;15.05;10.15;;;11.80;99.90;;;;;;4958880;28;20181;-80
2023/05/11 02:15:13;;;;;;;15.57;9.98;;;11.80;99.90;;;;;;4959565;28;20263;-80
2023/05/11 02:17:41;;;;;;;15.05;9.27;;;11.80;99.90;;;;;;4985811;28;20652;-80
2023/05/11 02:20:08;;;;;;;14.38;9.50;;;11.80;99.90;;;;;;4975214;28;20227;-81
2023/05/11 02:22:35;;;;;;;14.30;9.48;;;11.80;99.90;;;;;;4992785;28;20181;-81
2023/05/11 02:25:03;;;;;;;15.32;10.02;;;11.80;99.90;;;;;;4975701;28;20196;-80
2023/05/11 02:27:29;;;;;;;16.63;10.77;;;11.80;99.90;;;;;;4990357;28;20319;-80
2023/05/11 02:29:57;;;;;;;15.75;10.13;;;11.80;99.90;;;;;;4958481;28;20618;-79
2023/05/11 02:32:27;;;;;;;15.75;9.98;;;11.80;99.90;;;;;;4990873;28;20196;-80
2023/05/11 02:35:28;;;;;;;22.50;10.70;;;11.70;99.90;;;;;;4974702;28;20229;-81
2023/05/11 02:37:57;;;;;;;18.92;10.52;;;11.80;99.90;;;;;;4964728;28;20236;-80
2023/05/11 02:40:37;;;;;;;16.90;10.70;;;11.80;99.90;;;;;;4974380;28;20185;-80
2023/05/11 02:43:14;;;;;;;18.73;10.18;;;11.80;99.90;;;;;;4979184;28;20177;-80
2023/05/11 02:45:52;;;;;;;14.13;9.50;;;11.80;99.90;;;;;;4948773;28;20652;-79
2023/05/11 02:48:29;;;;;;;19.33;10.80;;;11.70;99.90;;;;;;4994980;28;20193;-80
2023/05/11 02:50:59;;;;;;;15.80;9.73;;;11.70;99.90;;;;;;4993830;28;20272;-81
2023/05/11 02:53:32;;;;;;;14.30;9.50;;;11.70;99.90;;;;;;4963657;28;20220;-82
2023/05/11 02:55:59;;;;;;;14.27;9.63;;;11.70;99.90;;;;;;4995824;28;20194;-82
2023/05/11 02:58:25;;;;;;;15.10;9.68;;;11.70;99.90;;;;;;4979362;28;20189;-81
2023/05/11 03:01:00;;;;;;;17.85;9.68;;;11.70;99.90;;;;;;4962435;28;20275;-81
2023/05/11 03:03:26;;;;;;;15.05;9.45;;;11.70;99.90;;;;;;4973839;28;20186;-81
2023/05/11 03:05:52;;;;;;;20.13;10.32;;;11.60;99.90;;;;;;4961573;28;20551;-81
2023/05/11 03:08:18;;;;;;;15.75;9.60;;;11.60;99.90;;;;;;4962676;28;20193;-81
2023/05/11 03:10:45;;;;;;;24.77;10.45;;;11.60;99.90;;;;;;4945977;28;20181;-81
2023/05/11 03:13:11;;;;;;;20.40;10.98;;;11.60;99.90;;;;;;4946789;28;20181;-81
2023/05/11 03:15:38;;;;;;;18.75;11.43;;;11.60;99.90;;;;;;4946077;28;20193;-81
2023/05/11 03:18:05;;;;;;;22.10;11.68;;;11.60;99.90;;;;;;4978656;28;20177;-81
2023/05/11 03:20:34;;;;;;;31.13;12.13;;;11.60;99.90;;;;;;4977571;28;20268;-81
2023/05/11 03:23:01;;;;;;;21.25;12.95;;;11.60;99.90;;;;;;4993149;28;20207;-81
2023/05/11 03:25:28;;;;;;;21.48;11.85;;;11.60;99.90;;;;;;4995396;28;20200;-82
2023/05/11 03:27:56;;;;;;;33.75;13.05;;;11.60;99.90;;;;;;4978609;28;20197;-81
2023/05/11 03:30:22;;;;;;;22.83;13.40;;;11.60;99.90;;;;;;4977092;28;20184;-82
2023/05/11 03:32:51;;;;;;;34.33;14.55;;;11.60;99.90;;;;;;4962173;28;20252;-81
2023/05/11 03:35:18;;;;;;;27.75;15.23;;;11.60;99.90;;;;;;4978088;28;20227;-82
2023/05/11 03:37:44;;;;;;;46.63;16.50;;;11.60;99.90;;;;;;4977117;28;20197;-81
2023/05/11 03:40:13;;;;;;;34.25;16.27;;;11.60;99.90;;;;;;4976902;28;20182;-82
2023/05/11 03:42:47;;;;;;;33.75;16.58;;;11.60;99.90;;;;;;4977187;28;20188;-82
2023/05/11 03:45:17;;;;;;;40.97;18.25;;;11.60;99.90;;;;;;4962104;28;20204;-82
2023/05/11 03:47:45;;;;;;;50.97;20.23;;;11.60;99.90;;;;;;4990371;28;20325;-80
2023/05/11 03:50:12;;;;;;;56.88;22.08;;;11.60;99.90;;;;;;4942481;28;20269;-80
2023/05/11 03:52:39;;;;;;;57.58;23.05;;;11.60;99.90;;;;;;4942064;28;20667;-80
2023/05/11 03:55:05;;;;;;;57.28;22.00;;;11.60;99.90;;;;;;4961692;28;20224;-81
2023/05/11 03:57:31;;;;;;;63.90;23.55;;;11.60;99.90;;;;;;4961129;28;20185;-80
2023/05/11 03:59:57;;;;;;;70.78;26.00;;;11.60;99.90;;;;;;4959510;28;20709;-81
2023/05/11 04:02:23;;;;;;;66.43;23.67;;;11.60;99.90;;;;;;4976915;28;20264;-81
2023/05/11 04:04:51;;;;;;;72.60;25.13;;;11.60;99.90;;;;;;4961048;28;20332;-81
2023/05/11 04:07:17;;;;;;;80.78;26.98;;;11.70;99.90;;;;;;4961421;28;20193;-79
2023/05/11 04:09:42;;;;;;;87.13;26.75;;;11.70;99.90;;;;;;4961513;28;20177;-80
2023/05/11 04:12:08;;;;;;;81.85;27.48;;;11.70;99.90;;;;;;4960627;28;20189;-80
2023/05/11 04:14:34;;;;;;;78.00;27.48;;;11.70;99.90;;;;;;4961412;28;20236;-81
2023/05/11 04:17:00;;;;;;;74.78;26.00;;;11.70;99.90;;;;;;4976661;28;20263;-79
2023/05/11 04:19:26;;;;;;;73.57;25.67;;;11.70;99.90;;;;;;4991727;28;20644;-86
2023/05/11 04:21:53;;;;;;;71.70;25.30;;;11.70;99.90;;;;;;4996720;28;20213;-79
2023/05/11 04:24:19;;;;;;;67.07;24.13;;;11.70;99.90;;;;;;4971109;28;20275;-79
2023/05/11 04:26:45;;;;;;;72.55;25.98;;;11.70;99.90;;;;;;4990371;28;20688;-79
2023/05/11 04:29:11;;;;;;;72.43;24.30;;;11.70;99.90;;;;;;4960805;28;20231;-79
2023/05/11 04:31:36;;;;;;;60.88;23.65;;;11.70;99.90;;;;;;4975101;28;20713;-80
2023/05/11 04:34:06;;;;;;;70.03;23.98;;;11.70;99.90;;;;;;4957833;28;20253;-78
2023/05/11 04:36:32;;;;;;;62.55;24.15;;;11.70;99.90;;;;;;4973707;28;20186;-81
2023/05/11 04:38:58;;;;;;;60.88;22.95;;;11.70;99.90;;;;;;4957838;28;20192;-79
2023/05/11 04:41:24;;;;;;;56.25;22.63;;;11.70;99.90;;;;;;4956922;28;20178;-80
2023/05/11 04:43:51;;;;;;;50.30;21.95;;;11.70;99.90;;;;;;4926370;28;20623;-80
2023/05/11 04:46:17;;;;;;;51.53;21.33;;;11.70;99.90;;;;;;4941336;28;20268;-79
2023/05/11 04:48:44;;;;;;;44.30;20.42;;;11.70;99.90;;;;;;4966607;28;20272;-79
2023/05/11 04:51:10;;;;;;;45.08;19.35;;;11.70;99.90;;;;;;4956572;28;20209;-80
2023/05/11 04:53:43;;;;;;;51.20;20.40;;;11.70;99.90;;;;;;4970926;28;20197;-82
2023/05/11 04:56:09;;;;;;;38.95;18.38;;;11.70;99.90;;;;;;4940204;28;20190;-82
2023/05/11 04:58:35;;;;;;;43.67;18.67;;;11.70;99.90;;;;;;4973466;28;20197;-79
2023/05/11 05:01:01;;;;;;;43.33;17.98;;;11.70;99.90;;;;;;4971754;28;20273;-79
2023/05/11 05:03:27;;;;;;;35.72;16.98;;;11.70;99.90;;;;;;4940163;28;20277;-81
2023/05/11 05:05:54;;;;;;;34.70;16.10;;;11.70;99.90;;;;;;4955917;28;20182;-82
2023/05/11 05:08:20;;;;;;;33.30;16.73;;;11.70;99.90;;;;;;4957485;28;20266;-82
2023/05/11 05:10:47;;;;;;;38.38;17.75;;;11.70;99.90;;;;;;4956571;28;20189;-83
2023/05/11 05:13:15;;;;;;;41.80;18.33;;;11.70;99.90;;;;;;4957309;28;20185;-82
2023/05/11 05:15:41;;;;;;;39.30;17.30;;;11.70;99.90;;;;;;4956399;28;20204;-84
2023/05/11 05:18:07;;;;;;;35.50;17.73;;;11.80;99.90;;;;;;4972169;28;20196;-84
2023/05/11 05:20:34;;;;;;;39.05;18.88;;;11.80;99.90;;;;;;4990910;28;20209;-83
2023/05/11 05:23:00;;;;;;;42.40;20.08;;;11.80;99.90;;;;;;4957043;28;20194;-84
2023/05/11 05:25:26;;;;;;;43.00;19.55;;;11.70;99.90;;;;;;4957184;28;20554;-83
2023/05/11 05:27:52;;;;;;;44.30;19.60;;;11.70;99.90;;;;;;4969644;28;20190;-83
2023/05/11 05:30:18;;;;;;;37.22;17.67;;;11.70;99.90;;;;;;4988563;28;20336;-84
2023/05/11 05:32:45;;;;;;;38.35;17.63;;;11.80;99.90;;;;;;4958574;28;20624;-84
2023/05/11 05:35:10;;;;;;;36.83;17.25;;;11.80;99.90;;;;;;4956568;28;20323;-84
2023/05/11 05:37:37;;;;;;;36.08;17.95;;;11.70;99.90;;;;;;4957100;28;20248;-82
2023/05/11 05:40:04;;;;;;;36.72;17.67;;;11.70;99.90;;;;;;4957136;28;20190;-82
2023/05/11 05:42:32;;;;;;;41.28;19.30;;;11.70;99.90;;;;;;4972212;28;20232;-82
2023/05/11 05:44:58;;;;;;;39.75;18.85;;;11.70;99.90;;;;;;4970934;28;20568;-84
2023/05/11 05:47:24;;;;;;;38.97;18.88;;;11.70;99.90;;;;;;4974010;28;20273;-84
2023/05/11 05:49:50;;;;;;;37.28;17.83;;;11.70;99.90;;;;;;4941680;28;20190;-84
2023/05/11 05:52:16;;;;;;;36.45;17.48;;;11.70;99.90;;;;;;4957641;28;20640;-83
2023/05/11 05:54:42;;;;;;;36.30;17.85;;;11.80;99.90;;;;;;4989673;28;20222;-83
2023/05/11 05:57:08;;;;;;;33.42;15.93;;;11.80;99.90;;;;;;4955338;28;20523;-85
2023/05/11 05:59:34;;;;;;;30.50;15.02;;;11.80;99.90;;;;;;4937485;28;20198;-84
2023/05/11 06:02:00;;;;;;;29.10;15.20;;;11.80;99.90;;;;;;4954353;28;20236;-83
2023/05/11 06:04:27;;;;;;;25.48;12.48;;;11.90;99.90;;;;;;4957562;28;20217;-82
2023/05/11 06:06:54;;;;;;;23.30;12.63;;;11.90;99.90;;;;;;4971339;28;20214;-84
2023/05/11 06:09:20;;;;;;;25.23;13.02;;;11.90;99.90;;;;;;4954989;28;20228;-82
2023/05/11 06:11:47;;;;;;;22.23;11.85;;;11.90;99.90;;;;;;4963965;28;20186;-84
2023/05/11 06:14:13;;;;;;;24.50;12.32;;;11.90;99.90;;;;;;4954551;28;20224;-82
2023/05/11 06:16:40;;;;;;;20.55;11.00;;;11.90;99.90;;;;;;4979869;28;20249;-82
2023/05/11 06:19:07;;;;;;;21.08;11.48;;;12.00;99.90;;;;;;4955777;28;20584;-83
2023/05/11 06:21:33;;;;;;;22.75;11.80;;;12.00;99.90;;;;;;4990140;28;20205;-82
2023/05/11 06:23:59;;;;;;;23.20;11.98;;;12.00;99.90;;;;;;4974040;28;20208;-84
2023/05/11 06:26:27;;;;;;;28.98;13.10;;;12.00;99.90;;;;;;4960523;28;20181;-84
2023/05/11 06:28:54;;;;;;;35.70;14.63;;;12.10;99.90;;;;;;4946924;28;20643;-85
2023/05/11 06:31:21;;;;;;;29.95;13.68;;;12.10;99.90;;;;;;4957462;28;20181;-85
2023/05/11 06:33:48;;;;;;;28.42;14.23;;;12.10;99.90;;;;;;4957721;28;20730;-85
2023/05/11 06:36:24;;;;;;;26.08;12.95;;;12.10;99.90;;;;;;4990872;28;20217;-84
2023/05/11 06:38:49;;;;;;;29.05;13.35;;;12.20;99.90;;;;;;4957692;28;20601;-82
2023/05/11 06:41:15;;;;;;;29.33;13.80;;;12.10;99.90;;;;;;4942197;28;20762;-86
2023/05/11 06:43:41;;;;;;;28.45;14.00;;;12.20;99.90;;;;;;4960044;28;20190;-85
2023/05/11 06:46:20;;;;;;;30.10;14.32;;;12.20;99.90;;;;;;4986442;28;20196;-86
2023/05/11 06:48:46;;;;;;;32.45;14.63;;;12.20;99.90;;;;;;4958100;28;20198;-85
2023/05/11 06:51:12;;;;;;;35.40;15.27;;;12.20;99.90;;;;;;4955746;28;20636;-87
2023/05/11 06:53:38;;;;;;;36.72;16.08;;;12.30;99.90;;;;;;4981625;28;20597;-83
2023/05/11 06:56:04;;;;;;;31.88;15.80;;;12.30;99.90;;;;;;4938873;28;20197;-83
2023/05/11 06:58:30;;;;;;;33.28;16.17;;;12.30;99.90;;;;;;4987065;28;20194;-88
2023/05/11 07:00:56;;;;;;;35.47;16.30;;;12.30;99.90;;;;;;4988898;28;20196;-85
2023/05/11 07:03:22;;;;;;;31.90;16.35;;;12.40;99.90;;;;;;4972557;28;20277;-86
2023/05/11 07:05:47;;;;;;;27.10;13.95;;;12.40;99.90;;;;;;4943947;28;20634;-86
2023/05/11 07:08:13;;;;;;;30.42;15.95;;;12.50;99.90;;;;;;4968790;28;20221;-86
2023/05/11 07:10:40;;;;;;;28.73;15.25;;;12.50;99.90;;;;;;4958749;28;20208;-88
2023/05/11 07:13:06;;;;;;;27.02;14.95;;;12.50;99.90;;;;;;4973109;28;20189;-85
2023/05/11 07:15:32;;;;;;;32.78;14.55;;;12.50;99.90;;;;;;4973743;28;20217;-83
2023/05/11 07:18:00;;;;;;;26.92;15.20;;;12.60;99.90;;;;;;4959733;28;20831;-84
2023/05/11 07:20:26;;;;;;;27.40;14.88;;;12.60;99.90;;;;;;4970497;28;20185;-83
2023/05/11 07:22:55;;;;;;;26.05;14.75;;;12.60;99.90;;;;;;4975120;28;20186;-84
2023/05/11 07:25:21;;;;;;;30.52;16.02;;;12.60;99.90;;;;;;4988778;28;20220;-84
2023/05/11 07:27:47;;;;;;;28.65;14.82;;;12.70;99.90;;;;;;4957294;28;20190;-85
2023/05/11 07:30:13;;;;;;;28.15;16.02;;;12.70;99.90;;;;;;4971277;28;20182;-84
2023/05/11 07:32:39;;;;;;;28.48;15.75;;;12.70;99.90;;;;;;4975772;28;20187;-85
2023/05/11 07:35:06;;;;;;;29.52;15.75;;;12.70;99.90;;;;;;4977596;28;20237;-85
2023/05/11 07:37:32;;;;;;;28.42;16.10;;;12.70;99.90;;;;;;4981540;28;20198;-84
2023/05/11 07:39:58;;;;;;;28.17;16.27;;;12.80;99.90;;;;;;4949204;28;20280;-83
2023/05/11 07:42:24;;;;;;;26.90;14.90;;;12.80;99.90;;;;;;4979986;28;20213;-84
2023/05/11 07:44:49;;;;;;;31.27;15.65;;;12.80;99.90;;;;;;4979551;28;20189;-84
2023/05/11 07:47:17;;;;;;;26.67;14.93;;;12.80;99.90;;;;;;4979103;28;20636;-84
2023/05/11 07:49:46;;;;;;;27.52;15.23;;;12.80;99.90;;;;;;4981634;28;20193;-84
2023/05/11 07:52:12;;;;;;;26.38;14.40;;;12.80;99.90;;;;;;4981278;28;20200;-86
2023/05/11 07:54:38;;;;;;;29.33;13.93;;;12.80;99.90;;;;;;4961334;28;20225;-86
2023/05/11 07:57:05;;;;;;;26.73;14.50;;;12.80;99.90;;;;;;4977482;28;20194;-84
2023/05/11 07:59:31;;;;;;;27.70;14.57;;;12.80;99.90;;;;;;4980232;28;20194;-87
2023/05/11 08:01:57;;;;;;;25.80;14.57;;;12.90;99.90;;;;;;4981045;28;20197;-87
2023/05/11 08:04:23;;;;;;;24.63;15.07;;;12.90;99.90;;;;;;4978783;28;20573;-85
2023/05/11 08:23:59;;;;;;;21.67;13.90;;;12.90;99.90;;;;;;5103492;27;1320171;-79
2023/05/11 08:26:24;;;;;;;23.05;12.43;;;13.10;99.90;;;;;;5130461;28;20181;-79
2023/05/11 08:28:56;;;;;;;20.02;12.63;;;13.10;99.90;;;;;;5103020;28;20177;-79
2023/05/11 08:31:22;;;;;;;19.75;13.00;;;13.10;99.90;;;;;;5084856;28;20208;-83
2023/05/11 08:33:48;;;;;;;20.88;12.55;;;13.10;99.90;;;;;;5103262;28;20645;-80
2023/05/11 08:36:14;;;;;;;20.25;12.43;;;13.10;99.90;;;;;;5092191;28;20181;-80
2023/05/11 08:38:40;;;;;;;20.88;12.93;;;13.10;99.90;;;;;;5103514;28;20195;-81
2023/05/11 08:41:06;;;;;;;20.80;12.48;;;13.10;99.90;;;;;;5129643;28;20180;-80
2023/05/11 08:43:34;;;;;;;19.75;12.30;;;13.10;99.90;;;;;;5119192;28;20196;-79
2023/05/11 08:46:06;;;;;;;23.38;13.60;;;13.10;99.90;;;;;;5118428;28;20181;-79
2023/05/11 08:48:33;;;;;;;21.55;12.60;;;13.10;99.90;;;;;;5085980;28;20200;-80
2023/05/11 08:50:59;;;;;;;22.40;13.07;;;13.10;99.90;;;;;;5129296;28;20184;-79
2023/05/11 08:53:25;;;;;;;23.60;13.00;;;13.10;99.90;;;;;;5101806;28;20614;-79
2023/05/11 08:55:56;;;;;;;20.77;12.07;;;13.10;99.90;;;;;;5127860;28;20172;-80
2023/05/11 08:58:23;;;;;;;21.73;11.80;;;13.10;99.90;;;;;;5118899;28;20181;-80
2023/05/11 09:00:49;;;;;;;17.30;10.73;;;13.10;99.90;;;;;;5109983;28;20169;-79
2023/05/11 09:03:16;;;;;;;19.73;11.93;;;13.20;99.90;;;;;;5092578;28;20260;-80
2023/05/11 09:05:45;;;;;;;23.80;12.25;;;13.20;99.90;;;;;;5099744;28;20201;-82
2023/05/11 09:08:12;;;;;;;23.48;12.98;;;13.20;99.90;;;;;;5109664;28;20227;-81
2023/05/11 09:10:38;;;;;;;20.08;12.57;;;13.20;99.90;;;;;;5092415;28;20223;-81
2023/05/11 09:13:04;;;;;;;18.92;12.30;;;13.20;99.90;;;;;;5129281;28;20615;-81
2023/05/11 09:15:30;;;;;;;17.50;11.60;;;13.30;99.90;;;;;;5130522;28;20680;-80
2023/05/11 09:17:56;;;;;;;21.00;11.63;;;13.30;99.90;;;;;;5111989;28;20187;-80
2023/05/11 09:20:30;;;;;;;17.30;12.18;;;13.30;99.90;;;;;;5091375;28;20271;-80
2023/05/11 09:22:57;;;;;;;19.05;11.63;;;13.40;99.90;;;;;;5127557;28;20225;-80
2023/05/11 09:25:24;;;;;;;17.75;11.50;;;13.40;99.90;;;;;;5116029;28;20656;-81
2023/05/11 09:27:51;;;;;;;15.95;11.13;;;13.50;99.90;;;;;;5081346;28;20181;-80
2023/05/11 09:30:21;;;;;;;19.85;11.50;;;13.50;99.90;;;;;;5115728;28;20672;-81
2023/05/11 09:32:58;;;;;;;19.10;11.00;;;13.60;99.90;;;;;;5115803;28;20205;-80
2023/05/11 09:35:28;;;;;;;14.85;10.90;;;13.60;99.90;;;;;;5098030;28;20264;-80
2023/05/11 09:37:57;;;;;;;15.63;11.07;;;13.60;99.90;;;;;;5100644;28;20178;-80
2023/05/11 09:40:25;;;;;;;17.63;12.18;;;13.60;99.90;;;;;;5105378;28;20181;-80
2023/05/11 09:42:50;;;;;;;17.67;12.02;;;13.70;99.90;;;;;;5087676;28;20192;-80
2023/05/11 09:45:39;;;;;;;16.52;11.95;;;13.70;99.90;;;;;;5097208;28;20255;-80
2023/05/11 09:48:11;;;;;;;18.27;11.85;;;13.80;99.90;;;;;;5096411;28;20173;-82
2023/05/11 09:50:37;;;;;;;18.95;11.60;;;13.90;99.90;;;;;;5115522;28;20165;-80
2023/05/11 09:53:03;;;;;;;17.02;11.85;;;13.90;99.90;;;;;;5097299;28;20209;-80
2023/05/11 09:55:29;;;;;;;17.38;12.18;;;14.00;99.90;;;;;;5115557;28;20188;-80
2023/05/11 09:57:56;;;;;;;15.75;12.13;;;14.00;99.90;;;;;;5096804;28;20646;-80
2023/05/11 10:00:25;;;;;;;17.00;11.85;;;14.10;99.90;;;;;;5097210;28;20565;-80
2023/05/11 10:03:02;;;;;;;19.40;12.73;;;14.10;99.90;;;;;;5096909;28;20187;-80
2023/05/11 10:05:30;;;;;;;18.92;13.02;;;14.10;99.90;;;;;;5115145;28;20314;-80
2023/05/11 10:08:01;;;;;;;17.70;11.65;;;14.20;99.90;;;;;;5097025;28;20576;-82
2023/05/11 10:10:29;;;;;;;16.92;11.88;;;14.20;99.90;;;;;;5096330;28;20276;-80
2023/05/11 10:12:57;;;;;;;17.17;12.07;;;14.30;99.90;;;;;;5099938;28;20372;-80
2023/05/11 10:15:27;;;;;;;20.30;12.65;;;14.30;99.90;;;;;;5094724;28;20616;-80
2023/05/11 10:17:58;;;;;;;20.75;12.93;;;14.40;99.90;;;;;;5094714;28;20174;-80
2023/05/11 10:20:24;;;;;;;17.30;12.13;;;14.40;99.90;;;;;;5063544;28;20231;-80
2023/05/11 10:22:54;;;;;;;17.52;12.65;;;14.50;99.90;;;;;;5102390;28;20225;-80
2023/05/11 10:25:25;;;;;;;19.23;12.43;;;14.50;99.90;;;;;;5096480;28;20557;-80
2023/05/11 10:27:52;;;;;;;18.27;13.15;;;14.60;99.90;;;;;;5115012;28;20186;-80
2023/05/11 10:30:18;;;;;;;18.13;12.35;;;14.60;99.90;;;;;;5115030;28;20242;-80
2023/05/11 10:32:48;;;;;;;16.70;11.80;;;14.70;99.90;;;;;;5114516;28;20209;-81
2023/05/11 10:35:14;;;;;;;16.27;11.70;;;14.80;99.90;;;;;;5094394;28;20188;-80
2023/05/11 10:37:42;;;;;;;16.77;12.10;;;14.90;99.90;;;;;;5080142;28;20675;-80
2023/05/11 10:40:08;;;;;;;15.50;11.57;;;15.10;99.90;;;;;;5096211;28;20178;-80
2023/05/11 10:43:01;;;;;;;17.10;11.55;;;15.30;99.90;;;;;;5114513;28;20224;-80
2023/05/11 10:46:03;;;;;;;15.40;11.55;;;15.40;99.90;;;;;;5092457;28;20212;-80
2023/05/11 10:48:56;;;;;;;13.80;10.45;;;15.40;99.90;;;;;;5083260;28;20220;-80
2023/05/11 10:51:44;;;;;;;14.63;10.50;;;15.50;99.90;;;;;;5114398;28;20779;-81
2023/05/11 10:54:25;;;;;;;12.88;9.25;;;15.60;99.90;;;;;;5098262;28;20177;-80
2023/05/11 10:57:28;;;;;;;12.25;9.68;;;15.70;99.90;;;;;;5096242;28;20162;-80
2023/05/11 11:00:29;;;;;;;12.55;9.00;;;15.80;99.90;;;;;;5085311;28;20235;-80
2023/05/11 11:02:56;;;;;;;10.43;8.18;;;15.90;99.90;;;;;;5076391;28;20174;-80
2023/05/11 11:05:33;;;;;;;11.75;8.68;;;15.90;99.90;;;;;;5075859;28;20185;-80
2023/05/11 11:08:02;;;;;;;11.75;8.73;;;15.90;99.90;;;;;;5104049;28;20181;-80
2023/05/11 11:10:37;;;;;;;13.35;9.25;;;16.00;99.90;;;;;;5114321;28;20220;-80
2023/05/11 11:13:08;;;;;;;11.95;8.98;;;16.10;99.90;;;;;;5113616;28;20193;-80
2023/05/11 11:15:52;;;;;;;11.52;8.27;;;16.20;99.90;;;;;;5096001;28;20185;-80
2023/05/11 11:18:23;;;;;;;12.95;8.20;;;16.20;99.90;;;;;;5085535;28;20186;-80
2023/05/11 11:20:51;;;;;;;12.15;8.00;;;16.30;99.90;;;;;;5093464;28;20186;-80
2023/05/11 11:23:42;;;;;;;10.75;7.85;;;16.40;99.90;;;;;;5093766;28;20365;-81
2023/05/11 11:26:09;;;;;;;9.38;6.72;;;16.40;99.90;;;;;;5092595;28;20521;-82
2023/05/11 11:28:59;;;;;;;8.57;6.55;;;16.50;99.90;;;;;;5082082;28;20533;-81
2023/05/11 11:31:28;;;;;;;8.77;5.95;;;16.60;99.90;;;;;;5094682;28;20192;-81
2023/05/11 11:33:57;;;;;;;8.63;6.35;;;16.70;99.90;;;;;;5111572;28;20185;-82
2023/05/11 11:36:54;;;;;;;6.75;5.50;;;16.80;99.90;;;;;;5091506;28;20179;-80
2023/05/11 11:39:48;;;;;;;7.00;5.10;;;16.90;99.90;;;;;;5091204;28;20177;-81
2023/05/11 11:42:29;;;;;;;5.13;4.40;;;16.90;99.90;;;;;;5075938;28;20235;-82
2023/05/11 11:45:25;;;;;;;5.38;4.60;;;17.00;99.90;;;;;;5086444;28;20173;-81
2023/05/11 11:48:12;;;;;;;6.30;3.47;;;17.10;99.90;;;;;;5106176;28;20173;-81
2023/05/11 11:50:42;;;;;;;7.93;4.18;;;17.20;99.90;;;;;;5105351;28;20200;-81
2023/05/11 11:53:32;;;;;;;5.03;3.80;;;17.30;99.90;;;;;;5092895;28;20209;-81
2023/05/11 11:55:58;;;;;;;3.55;3.15;;;17.30;99.90;;;;;;5078796;28;20181;-81
2023/05/11 11:58:42;;;;;;;5.18;3.13;;;17.50;99.90;;;;;;5061793;28;20527;-81
2023/05/11 12:01:12;;;;;;;3.92;2.95;;;17.60;99.90;;;;;;5085517;28;20243;-81
2023/05/11 12:03:42;;;;;;;6.30;2.40;;;17.70;99.90;;;;;;5107170;28;20654;-81
2023/05/11 12:06:10;;;;;;;3.83;3.08;;;17.80;99.90;;;;;;5113039;28;20665;-82
2023/05/11 12:08:37;;;;;;;4.15;3.17;;;17.90;99.90;;;;;;5101674;28;20261;-82
2023/05/11 12:11:05;;;;;;;3.70;2.78;;;18.00;99.90;;;;;;5075016;28;20676;-88
2023/05/11 12:13:32;;;;;;;4.55;2.60;;;18.00;99.90;;;;;;5074781;28;20517;-80
2023/05/11 12:16:08;;;;;;;2.88;2.42;;;18.00;99.90;;;;;;5085388;28;20242;-81
2023/05/11 12:18:34;;;;;;;3.40;3.10;;;18.10;99.90;;;;;;5074526;28;20176;-80
2023/05/11 12:21:01;;;;;;;2.88;2.55;;;18.10;99.90;;;;;;5087934;28;20185;-80
2023/05/11 12:23:28;;;;;;;4.93;2.45;;;18.20;99.90;;;;;;5109740;28;20249;-81
2023/05/11 12:26:04;;;;;;;3.45;2.97;;;18.30;99.90;;;;;;5092675;28;20185;-80
2023/05/11 12:28:34;;;;;;;6.18;3.33;;;18.30;99.90;;;;;;5109639;28;20182;-80
2023/05/11 12:31:00;;;;;;;3.25;2.90;;;18.20;99.90;;;;;;5108737;28;20174;-81
2023/05/11 12:33:26;;;;;;;4.32;2.60;;;18.10;99.90;;;;;;5110778;28;20209;-80
2023/05/11 12:35:56;;;;;;;5.45;2.80;;;18.10;99.90;;;;;;5098197;28;20221;-81
2023/05/11 12:38:22;;;;;;;4.88;3.00;;;18.10;99.90;;;;;;5102950;28;20230;-80
2023/05/11 12:40:52;;;;;;;4.15;3.67;;;18.10;99.90;;;;;;5110886;28;20270;-80
2023/05/11 12:43:19;;;;;;;5.72;4.10;;;18.10;99.90;;;;;;5110483;28;20273;-78
2023/05/11 12:45:45;;;;;;;5.32;3.50;;;18.10;99.90;;;;;;5111626;28;20239;-78
2023/05/11 12:48:12;;;;;;;6.15;4.05;;;18.10;99.90;;;;;;5108079;28;20298;-80
2023/05/11 12:50:40;;;;;;;6.03;4.88;;;18.20;99.90;;;;;;5092578;28;20299;-81
2023/05/11 12:53:18;;;;;;;6.13;5.15;;;18.20;99.90;;;;;;5093708;28;20655;-80
2023/05/11 12:55:55;;;;;;;6.03;4.78;;;18.20;99.90;;;;;;5112165;28;20189;-78
2023/05/11 12:58:21;;;;;;;6.13;4.50;;;18.20;99.90;;;;;;5113255;28;20177;-78
2023/05/11 13:00:51;;;;;;;4.60;4.10;;;18.20;99.90;;;;;;5116628;28;20191;-78